sensor_id;sensor_type;location;lat;lon;timestamp;P1;durP1;ratioP1;P2;durP2;ratioP2
76591;SDS011;65481;47.600;19.682;2023-01-31T00:00:13;12.32;;;5.53;;
76591;SDS011;65481;47.600;19.682;2023-01-31T00:05:14;14.30;;;6.90;;
76591;SDS011;65481;47.600;19.682;2023-01-31T00:10:15;10.80;;;5.97;;
76591;SDS011;65481;47.600;19.682;2023-01-31T00:15:15;10.73;;;5.03;;
76591;SDS011;65481;47.600;19.682;2023-01-31T00:20:17;11.65;;;6.20;;
76591;SDS011;65481;47.600;19.682;2023-01-31T00:25:18;8.27;;;4.78;;
76591;SDS011;65481;47.600;19.682;2023-01-31T00:30:19;5.68;;;3.90;;
76591;SDS011;65481;47.600;19.682;2023-01-31T00:35:19;7.72;;;4.55;;
76591;SDS011;65481;47.600;19.682;2023-01-31T00:40:20;8.00;;;5.03;;
76591;SDS011;65481;47.600;19.682;2023-01-31T00:45:20;7.35;;;4.20;;
76591;SDS011;65481;47.600;19.682;2023-01-31T00:50:23;10.10;;;4.80;;
76591;SDS011;65481;47.600;19.682;2023-01-31T00:55:24;6.28;;;4.05;;
76591;SDS011;65481;47.600;19.682;2023-01-31T01:00:25;7.68;;;3.85;;
76591;SDS011;65481;47.600;19.682;2023-01-31T01:05:25;6.25;;;3.45;;
76591;SDS011;65481;47.600;19.682;2023-01-31T01:10:26;5.95;;;3.08;;
76591;SDS011;65481;47.600;19.682;2023-01-31T01:15:27;6.53;;;3.40;;
76591;SDS011;65481;47.600;19.682;2023-01-31T01:20:27;5.90;;;3.50;;
76591;SDS011;65481;47.600;19.682;2023-01-31T01:25:28;6.65;;;3.38;;
76591;SDS011;65481;47.600;19.682;2023-01-31T01:30:28;7.70;;;4.25;;
76591;SDS011;65481;47.600;19.682;2023-01-31T01:35:30;8.48;;;4.10;;
76591;SDS011;65481;47.600;19.682;2023-01-31T01:40:34;5.35;;;3.70;;
76591;SDS011;65481;47.600;19.682;2023-01-31T01:45:37;6.50;;;3.90;;
76591;SDS011;65481;47.600;19.682;2023-01-31T01:50:41;5.03;;;3.65;;
76591;SDS011;65481;47.600;19.682;2023-01-31T01:55:54;6.88;;;3.80;;
76591;SDS011;65481;47.600;19.682;2023-01-31T02:01:00;4.78;;;3.50;;
76591;SDS011;65481;47.600;19.682;2023-01-31T02:06:04;6.93;;;3.55;;
76591;SDS011;65481;47.600;19.682;2023-01-31T02:11:11;5.68;;;3.50;;
76591;SDS011;65481;47.600;19.682;2023-01-31T02:16:20;5.50;;;3.22;;
76591;SDS011;65481;47.600;19.682;2023-01-31T02:43:33;4.30;;;2.40;;
76591;SDS011;65481;47.600;19.682;2023-01-31T02:48:45;6.22;;;3.05;;
76591;SDS011;65481;47.600;19.682;2023-01-31T02:53:55;6.47;;;2.50;;
76591;SDS011;65481;47.600;19.682;2023-01-31T02:59:15;10.30;;;3.83;;
76591;SDS011;65481;47.600;19.682;2023-01-31T03:04:18;8.15;;;3.08;;
76591;SDS011;65481;47.600;19.682;2023-01-31T03:09:39;5.05;;;2.75;;
76591;SDS011;65481;47.600;19.682;2023-01-31T03:20:19;12.65;;;2.75;;
76591;SDS011;65481;47.600;19.682;2023-01-31T03:25:28;6.57;;;2.30;;
76591;SDS011;65481;47.600;19.682;2023-01-31T03:30:33;4.78;;;2.20;;
76591;SDS011;65481;47.600;19.682;2023-01-31T03:35:36;3.75;;;2.00;;
76591;SDS011;65481;47.600;19.682;2023-01-31T03:40:44;6.07;;;2.15;;
76591;SDS011;65481;47.600;19.682;2023-01-31T03:45:54;3.38;;;1.92;;
76591;SDS011;65481;47.600;19.682;2023-01-31T03:50:59;7.60;;;1.90;;
76591;SDS011;65481;47.600;19.682;2023-01-31T03:56:06;6.32;;;2.35;;
76591;SDS011;65481;47.600;19.682;2023-01-31T04:01:20;3.22;;;1.70;;
76591;SDS011;65481;47.600;19.682;2023-01-31T04:06:25;3.13;;;1.77;;
76591;SDS011;65481;47.600;19.682;2023-01-31T04:11:26;7.10;;;2.15;;
76591;SDS011;65481;47.600;19.682;2023-01-31T04:16:27;6.63;;;2.20;;
76591;SDS011;65481;47.600;19.682;2023-01-31T04:21:27;4.40;;;2.10;;
76591;SDS011;65481;47.600;19.682;2023-01-31T04:26:28;9.27;;;2.20;;
76591;SDS011;65481;47.600;19.682;2023-01-31T04:31:28;4.32;;;1.83;;
76591;SDS011;65481;47.600;19.682;2023-01-31T04:36:29;5.97;;;2.20;;
76591;SDS011;65481;47.600;19.682;2023-01-31T04:41:31;9.88;;;2.67;;
76591;SDS011;65481;47.600;19.682;2023-01-31T04:46:31;4.20;;;1.52;;
76591;SDS011;65481;47.600;19.682;2023-01-31T04:51:32;6.82;;;2.15;;
76591;SDS011;65481;47.600;19.682;2023-01-31T04:56:32;4.03;;;1.83;;
76591;SDS011;65481;47.600;19.682;2023-01-31T05:01:33;8.13;;;2.17;;
76591;SDS011;65481;47.600;19.682;2023-01-31T05:06:33;6.05;;;2.40;;
76591;SDS011;65481;47.600;19.682;2023-01-31T05:11:34;7.45;;;2.55;;
76591;SDS011;65481;47.600;19.682;2023-01-31T05:16:35;2.78;;;1.52;;
76591;SDS011;65481;47.600;19.682;2023-01-31T05:21:35;4.38;;;1.70;;
76591;SDS011;65481;47.600;19.682;2023-01-31T05:26:54;4.45;;;1.88;;
76591;SDS011;65481;47.600;19.682;2023-01-31T05:31:58;9.27;;;3.05;;
76591;SDS011;65481;47.600;19.682;2023-01-31T05:37:00;4.88;;;2.00;;
76591;SDS011;65481;47.600;19.682;2023-01-31T05:42:01;4.00;;;2.03;;
76591;SDS011;65481;47.600;19.682;2023-01-31T05:47:01;4.80;;;2.30;;
76591;SDS011;65481;47.600;19.682;2023-01-31T05:52:02;7.43;;;2.92;;
76591;SDS011;65481;47.600;19.682;2023-01-31T05:57:02;9.63;;;2.90;;
76591;SDS011;65481;47.600;19.682;2023-01-31T06:02:03;8.43;;;3.22;;
76591;SDS011;65481;47.600;19.682;2023-01-31T06:07:03;3.85;;;2.00;;
76591;SDS011;65481;47.600;19.682;2023-01-31T06:12:04;3.67;;;2.42;;
76591;SDS011;65481;47.600;19.682;2023-01-31T06:17:05;3.97;;;1.83;;
76591;SDS011;65481;47.600;19.682;2023-01-31T06:22:06;3.50;;;1.60;;
76591;SDS011;65481;47.600;19.682;2023-01-31T06:27:06;2.58;;;1.42;;
76591;SDS011;65481;47.600;19.682;2023-01-31T06:32:07;2.50;;;1.75;;
76591;SDS011;65481;47.600;19.682;2023-01-31T06:37:08;5.57;;;2.03;;
76591;SDS011;65481;47.600;19.682;2023-01-31T06:42:09;2.28;;;1.40;;
76591;SDS011;65481;47.600;19.682;2023-01-31T06:47:10;6.57;;;2.10;;
76591;SDS011;65481;47.600;19.682;2023-01-31T06:52:12;3.08;;;1.90;;
76591;SDS011;65481;47.600;19.682;2023-01-31T06:57:12;6.07;;;3.25;;
76591;SDS011;65481;47.600;19.682;2023-01-31T07:02:13;5.10;;;2.17;;
76591;SDS011;65481;47.600;19.682;2023-01-31T07:07:13;6.20;;;2.00;;
76591;SDS011;65481;47.600;19.682;2023-01-31T07:12:14;3.90;;;1.88;;
76591;SDS011;65481;47.600;19.682;2023-01-31T07:17:14;6.07;;;2.15;;
76591;SDS011;65481;47.600;19.682;2023-01-31T07:22:15;3.92;;;2.45;;
76591;SDS011;65481;47.600;19.682;2023-01-31T07:27:16;9.02;;;4.78;;
76591;SDS011;65481;47.600;19.682;2023-01-31T07:32:16;4.57;;;2.53;;
76591;SDS011;65481;47.600;19.682;2023-01-31T07:37:17;5.63;;;2.55;;
76591;SDS011;65481;47.600;19.682;2023-01-31T07:42:17;4.40;;;2.22;;
76591;SDS011;65481;47.600;19.682;2023-01-31T07:47:18;6.72;;;2.67;;
76591;SDS011;65481;47.600;19.682;2023-01-31T07:52:18;9.45;;;4.00;;
76591;SDS011;65481;47.600;19.682;2023-01-31T07:57:19;6.13;;;1.90;;
76591;SDS011;65481;47.600;19.682;2023-01-31T08:02:19;19.20;;;7.57;;
76591;SDS011;65481;47.600;19.682;2023-01-31T08:07:38;24.95;;;12.38;;
76591;SDS011;65481;47.600;19.682;2023-01-31T08:12:39;4.75;;;2.05;;
76591;SDS011;65481;47.600;19.682;2023-01-31T08:17:40;6.93;;;2.35;;
76591;SDS011;65481;47.600;19.682;2023-01-31T08:22:40;5.18;;;2.30;;
76591;SDS011;65481;47.600;19.682;2023-01-31T08:27:41;14.02;;;3.03;;
76591;SDS011;65481;47.600;19.682;2023-01-31T08:32:41;4.60;;;2.50;;
76591;SDS011;65481;47.600;19.682;2023-01-31T08:37:42;3.60;;;1.40;;
76591;SDS011;65481;47.600;19.682;2023-01-31T08:42:42;2.72;;;1.20;;
76591;SDS011;65481;47.600;19.682;2023-01-31T08:47:43;4.38;;;1.92;;
76591;SDS011;65481;47.600;19.682;2023-01-31T08:52:43;4.93;;;2.08;;
76591;SDS011;65481;47.600;19.682;2023-01-31T08:57:44;3.72;;;1.67;;
76591;SDS011;65481;47.600;19.682;2023-01-31T09:02:52;5.57;;;1.60;;
76591;SDS011;65481;47.600;19.682;2023-01-31T09:07:53;3.83;;;1.08;;
76591;SDS011;65481;47.600;19.682;2023-01-31T09:12:54;2.60;;;1.08;;
76591;SDS011;65481;47.600;19.682;2023-01-31T09:17:54;4.43;;;1.50;;
76591;SDS011;65481;47.600;19.682;2023-01-31T09:22:55;4.43;;;1.45;;
76591;SDS011;65481;47.600;19.682;2023-01-31T09:27:55;2.95;;;1.08;;
76591;SDS011;65481;47.600;19.682;2023-01-31T09:32:56;4.10;;;1.20;;
76591;SDS011;65481;47.600;19.682;2023-01-31T09:38:00;5.28;;;2.90;;
76591;SDS011;65481;47.600;19.682;2023-01-31T09:43:01;5.32;;;2.05;;
76591;SDS011;65481;47.600;19.682;2023-01-31T09:48:02;2.78;;;1.02;;
76591;SDS011;65481;47.600;19.682;2023-01-31T09:53:09;5.60;;;2.17;;
76591;SDS011;65481;47.600;19.682;2023-01-31T10:03:40;6.93;;;3.72;;
76591;SDS011;65481;47.600;19.682;2023-01-31T10:08:50;7.47;;;3.35;;
76591;SDS011;65481;47.600;19.682;2023-01-31T10:14:04;4.93;;;2.33;;
76591;SDS011;65481;47.600;19.682;2023-01-31T10:19:20;11.25;;;4.32;;
76591;SDS011;65481;47.600;19.682;2023-01-31T10:24:31;3.03;;;1.95;;
76591;SDS011;65481;47.600;19.682;2023-01-31T10:29:49;3.53;;;1.20;;
76591;SDS011;65481;47.600;19.682;2023-01-31T10:34:55;2.93;;;0.97;;
76591;SDS011;65481;47.600;19.682;2023-01-31T10:40:03;2.95;;;1.23;;
76591;SDS011;65481;47.600;19.682;2023-01-31T10:45:19;1.45;;;1.00;;
76591;SDS011;65481;47.600;19.682;2023-01-31T10:50:25;1.50;;;0.90;;
76591;SDS011;65481;47.600;19.682;2023-01-31T11:01:17;2.80;;;1.48;;
76591;SDS011;65481;47.600;19.682;2023-01-31T11:06:18;4.32;;;1.42;;
76591;SDS011;65481;47.600;19.682;2023-01-31T11:11:21;6.20;;;2.88;;
76591;SDS011;65481;47.600;19.682;2023-01-31T11:16:23;6.20;;;2.25;;
76591;SDS011;65481;47.600;19.682;2023-01-31T11:21:30;4.28;;;1.50;;
76591;SDS011;65481;47.600;19.682;2023-01-31T11:26:34;5.33;;;2.33;;
76591;SDS011;65481;47.600;19.682;2023-01-31T11:31:39;5.40;;;1.65;;
76591;SDS011;65481;47.600;19.682;2023-01-31T11:36:42;5.18;;;2.40;;
76591;SDS011;65481;47.600;19.682;2023-01-31T11:41:46;6.97;;;3.17;;
76591;SDS011;65481;47.600;19.682;2023-01-31T11:46:57;7.43;;;3.83;;
76591;SDS011;65481;47.600;19.682;2023-01-31T11:52:13;5.45;;;1.77;;
76591;SDS011;65481;47.600;19.682;2023-01-31T12:02:39;3.58;;;1.30;;
76591;SDS011;65481;47.600;19.682;2023-01-31T12:07:44;1.77;;;1.20;;
76591;SDS011;65481;47.600;19.682;2023-01-31T12:12:50;4.43;;;1.27;;
76591;SDS011;65481;47.600;19.682;2023-01-31T12:17:51;6.32;;;1.77;;
76591;SDS011;65481;47.600;19.682;2023-01-31T12:55:11;6.45;;;2.58;;
76591;SDS011;65481;47.600;19.682;2023-01-31T13:06:07;3.45;;;1.85;;
76591;SDS011;65481;47.600;19.682;2023-01-31T13:11:15;3.97;;;1.77;;
76591;SDS011;65481;47.600;19.682;2023-01-31T13:21:28;3.60;;;1.47;;
76591;SDS011;65481;47.600;19.682;2023-01-31T13:26:31;4.40;;;2.00;;
76591;SDS011;65481;47.600;19.682;2023-01-31T13:31:36;5.25;;;2.28;;
76591;SDS011;65481;47.600;19.682;2023-01-31T13:36:44;3.22;;;1.60;;
76591;SDS011;65481;47.600;19.682;2023-01-31T13:41:55;4.95;;;2.25;;
76591;SDS011;65481;47.600;19.682;2023-01-31T13:52:11;5.57;;;2.60;;
76591;SDS011;65481;47.600;19.682;2023-01-31T13:57:51;9.55;;;4.68;;
76591;SDS011;65481;47.600;19.682;2023-01-31T14:02:58;3.13;;;1.45;;
76591;SDS011;65481;47.600;19.682;2023-01-31T14:23:44;1.88;;;1.02;;
76591;SDS011;65481;47.600;19.682;2023-01-31T14:28:46;2.53;;;1.40;;
76591;SDS011;65481;47.600;19.682;2023-01-31T14:33:46;3.75;;;1.67;;
76591;SDS011;65481;47.600;19.682;2023-01-31T14:49:42;5.60;;;1.95;;
76591;SDS011;65481;47.600;19.682;2023-01-31T15:16:34;4.22;;;1.65;;
76591;SDS011;65481;47.600;19.682;2023-01-31T15:21:30;4.35;;;1.83;;
76591;SDS011;65481;47.600;19.682;2023-01-31T15:26:35;4.85;;;2.47;;
76591;SDS011;65481;47.600;19.682;2023-01-31T15:31:38;4.63;;;1.83;;
76591;SDS011;65481;47.600;19.682;2023-01-31T15:36:47;5.93;;;2.20;;
76591;SDS011;65481;47.600;19.682;2023-01-31T15:41:51;4.18;;;1.83;;
76591;SDS011;65481;47.600;19.682;2023-01-31T15:46:52;3.17;;;1.95;;
76591;SDS011;65481;47.600;19.682;2023-01-31T15:57:12;5.63;;;2.40;;
76591;SDS011;65481;47.600;19.682;2023-01-31T16:02:26;4.65;;;2.10;;
76591;SDS011;65481;47.600;19.682;2023-01-31T16:07:29;9.90;;;3.85;;
76591;SDS011;65481;47.600;19.682;2023-01-31T16:12:30;7.70;;;3.40;;
76591;SDS011;65481;47.600;19.682;2023-01-31T16:17:32;9.52;;;3.78;;
76591;SDS011;65481;47.600;19.682;2023-01-31T16:22:33;7.55;;;3.70;;
76591;SDS011;65481;47.600;19.682;2023-01-31T16:27:35;6.72;;;3.35;;
76591;SDS011;65481;47.600;19.682;2023-01-31T16:32:37;4.43;;;3.20;;
76591;SDS011;65481;47.600;19.682;2023-01-31T16:37:40;6.47;;;3.70;;
76591;SDS011;65481;47.600;19.682;2023-01-31T16:42:42;5.50;;;2.78;;
76591;SDS011;65481;47.600;19.682;2023-01-31T16:53:11;5.68;;;2.92;;
76591;SDS011;65481;47.600;19.682;2023-01-31T16:58:41;5.97;;;2.78;;
76591;SDS011;65481;47.600;19.682;2023-01-31T17:03:44;6.00;;;2.63;;
76591;SDS011;65481;47.600;19.682;2023-01-31T17:08:46;17.17;;;6.55;;
76591;SDS011;65481;47.600;19.682;2023-01-31T17:13:47;9.15;;;4.00;;
76591;SDS011;65481;47.600;19.682;2023-01-31T17:18:48;7.20;;;3.90;;
76591;SDS011;65481;47.600;19.682;2023-01-31T17:23:49;10.77;;;4.07;;
76591;SDS011;65481;47.600;19.682;2023-01-31T17:28:50;6.60;;;3.78;;
76591;SDS011;65481;47.600;19.682;2023-01-31T17:33:51;7.50;;;3.53;;
76591;SDS011;65481;47.600;19.682;2023-01-31T17:38:52;8.50;;;5.22;;
76591;SDS011;65481;47.600;19.682;2023-01-31T17:43:52;11.25;;;4.82;;
76591;SDS011;65481;47.600;19.682;2023-01-31T17:48:53;10.60;;;4.60;;
76591;SDS011;65481;47.600;19.682;2023-01-31T17:53:54;9.32;;;3.35;;
76591;SDS011;65481;47.600;19.682;2023-01-31T17:58:55;11.02;;;3.90;;
76591;SDS011;65481;47.600;19.682;2023-01-31T18:03:55;7.82;;;3.58;;
76591;SDS011;65481;47.600;19.682;2023-01-31T18:09:00;5.47;;;3.72;;
76591;SDS011;65481;47.600;19.682;2023-01-31T18:14:03;8.73;;;3.67;;
76591;SDS011;65481;47.600;19.682;2023-01-31T18:19:04;8.85;;;3.63;;
76591;SDS011;65481;47.600;19.682;2023-01-31T18:24:05;7.40;;;3.83;;
76591;SDS011;65481;47.600;19.682;2023-01-31T18:29:13;10.00;;;4.47;;
76591;SDS011;65481;47.600;19.682;2023-01-31T18:34:18;49.57;;;24.33;;
76591;SDS011;65481;47.600;19.682;2023-01-31T18:39:19;57.22;;;22.98;;
76591;SDS011;65481;47.600;19.682;2023-01-31T18:44:20;72.93;;;23.75;;
76591;SDS011;65481;47.600;19.682;2023-01-31T18:49:21;46.22;;;15.35;;
76591;SDS011;65481;47.600;19.682;2023-01-31T18:54:22;34.45;;;13.23;;
76591;SDS011;65481;47.600;19.682;2023-01-31T18:59:25;29.95;;;10.57;;
76591;SDS011;65481;47.600;19.682;2023-01-31T19:04:26;26.02;;;11.40;;
76591;SDS011;65481;47.600;19.682;2023-01-31T19:09:27;16.33;;;7.63;;
76591;SDS011;65481;47.600;19.682;2023-01-31T19:14:27;17.40;;;8.50;;
76591;SDS011;65481;47.600;19.682;2023-01-31T19:19:30;27.98;;;11.90;;
76591;SDS011;65481;47.600;19.682;2023-01-31T19:24:31;14.35;;;6.15;;
76591;SDS011;65481;47.600;19.682;2023-01-31T19:29:32;10.45;;;5.30;;
76591;SDS011;65481;47.600;19.682;2023-01-31T19:34:32;9.27;;;5.03;;
76591;SDS011;65481;47.600;19.682;2023-01-31T19:39:35;16.08;;;6.82;;
76591;SDS011;65481;47.600;19.682;2023-01-31T19:44:36;12.30;;;5.50;;
76591;SDS011;65481;47.600;19.682;2023-01-31T19:49:39;9.02;;;5.10;;
76591;SDS011;65481;47.600;19.682;2023-01-31T19:54:42;13.60;;;6.40;;
76591;SDS011;65481;47.600;19.682;2023-01-31T19:59:43;9.77;;;4.75;;
76591;SDS011;65481;47.600;19.682;2023-01-31T20:04:44;8.45;;;5.15;;
76591;SDS011;65481;47.600;19.682;2023-01-31T20:09:46;17.92;;;9.35;;
76591;SDS011;65481;47.600;19.682;2023-01-31T20:14:47;13.25;;;6.35;;
76591;SDS011;65481;47.600;19.682;2023-01-31T20:19:48;13.90;;;5.00;;
76591;SDS011;65481;47.600;19.682;2023-01-31T20:24:50;15.80;;;7.80;;
76591;SDS011;65481;47.600;19.682;2023-01-31T20:29:53;19.88;;;8.07;;
76591;SDS011;65481;47.600;19.682;2023-01-31T20:34:53;39.65;;;13.02;;
76591;SDS011;65481;47.600;19.682;2023-01-31T20:39:55;22.17;;;6.68;;
76591;SDS011;65481;47.600;19.682;2023-01-31T20:44:56;39.40;;;13.30;;
76591;SDS011;65481;47.600;19.682;2023-01-31T20:49:57;56.55;;;17.10;;
76591;SDS011;65481;47.600;19.682;2023-01-31T20:54:58;19.17;;;7.68;;
76591;SDS011;65481;47.600;19.682;2023-01-31T20:59:59;43.80;;;18.88;;
76591;SDS011;65481;47.600;19.682;2023-01-31T21:05:00;8.80;;;4.05;;
76591;SDS011;65481;47.600;19.682;2023-01-31T21:10:00;9.85;;;4.40;;
76591;SDS011;65481;47.600;19.682;2023-01-31T21:15:02;7.03;;;4.18;;
76591;SDS011;65481;47.600;19.682;2023-01-31T21:20:02;7.25;;;3.75;;
76591;SDS011;65481;47.600;19.682;2023-01-31T21:25:06;8.23;;;4.80;;
76591;SDS011;65481;47.600;19.682;2023-01-31T21:30:07;8.23;;;4.03;;
76591;SDS011;65481;47.600;19.682;2023-01-31T21:35:08;7.63;;;4.00;;
76591;SDS011;65481;47.600;19.682;2023-01-31T21:40:09;8.63;;;4.45;;
76591;SDS011;65481;47.600;19.682;2023-01-31T21:45:10;9.00;;;3.75;;
76591;SDS011;65481;47.600;19.682;2023-01-31T21:50:10;8.25;;;3.80;;
76591;SDS011;65481;47.600;19.682;2023-01-31T21:55:12;11.60;;;4.03;;
76591;SDS011;65481;47.600;19.682;2023-01-31T22:00:12;7.32;;;4.10;;
76591;SDS011;65481;47.600;19.682;2023-01-31T22:05:13;7.30;;;3.88;;
76591;SDS011;65481;47.600;19.682;2023-01-31T22:10:13;7.80;;;4.32;;
76591;SDS011;65481;47.600;19.682;2023-01-31T22:15:14;9.05;;;4.60;;
76591;SDS011;65481;47.600;19.682;2023-01-31T22:20:15;7.60;;;5.22;;
76591;SDS011;65481;47.600;19.682;2023-01-31T22:25:16;9.55;;;4.15;;
76591;SDS011;65481;47.600;19.682;2023-01-31T22:30:16;8.48;;;4.85;;
76591;SDS011;65481;47.600;19.682;2023-01-31T22:35:17;7.97;;;4.50;;
76591;SDS011;65481;47.600;19.682;2023-01-31T22:40:17;11.38;;;4.30;;
76591;SDS011;65481;47.600;19.682;2023-01-31T22:45:18;6.57;;;4.05;;
76591;SDS011;65481;47.600;19.682;2023-01-31T22:50:19;6.88;;;4.10;;
76591;SDS011;65481;47.600;19.682;2023-01-31T22:55:19;10.55;;;4.38;;
76591;SDS011;65481;47.600;19.682;2023-01-31T23:00:19;8.35;;;4.82;;
76591;SDS011;65481;47.600;19.682;2023-01-31T23:05:20;10.77;;;4.30;;
76591;SDS011;65481;47.600;19.682;2023-01-31T23:10:21;8.85;;;4.13;;
76591;SDS011;65481;47.600;19.682;2023-01-31T23:15:25;7.78;;;4.10;;
76591;SDS011;65481;47.600;19.682;2023-01-31T23:20:27;10.13;;;4.35;;
76591;SDS011;65481;47.600;19.682;2023-01-31T23:25:28;9.82;;;3.60;;
76591;SDS011;65481;47.600;19.682;2023-01-31T23:30:29;6.75;;;3.75;;
76591;SDS011;65481;47.600;19.682;2023-01-31T23:35:29;9.52;;;3.58;;
76591;SDS011;65481;47.600;19.682;2023-01-31T23:40:30;11.38;;;3.78;;
76591;SDS011;65481;47.600;19.682;2023-01-31T23:45:30;11.27;;;3.90;;
76591;SDS011;65481;47.600;19.682;2023-01-31T23:50:31;7.80;;;3.70;;
76591;SDS011;65481;47.600;19.682;2023-01-31T23:55:31;7.68;;;3.38;;
